createdAt,value
2017-10-23T00:02:22.365Z,2.92
2017-10-23T00:04:48.695Z,4.10
2017-10-23T00:07:15.018Z,3.50
2017-10-23T00:09:41.351Z,3.17
2017-10-23T00:12:07.735Z,2.75
2017-10-23T00:14:34.032Z,3.50
2017-10-23T00:17:00.337Z,4.35
2017-10-23T00:19:26.683Z,3.80
2017-10-23T00:21:53.009Z,3.95
2017-10-23T00:24:19.331Z,3.53
2017-10-23T00:26:45.680Z,3.87
2017-10-23T00:29:12.015Z,3.72
2017-10-23T00:31:38.352Z,3.80
2017-10-23T00:34:04.663Z,3.45
2017-10-23T00:36:31.007Z,3.08
2017-10-23T00:38:57.326Z,3.90
2017-10-23T00:41:23.664Z,2.20
2017-10-23T00:43:49.987Z,2.62
2017-10-23T00:46:16.392Z,2.62
2017-10-23T00:48:42.658Z,3.00
2017-10-23T00:51:08.981Z,3.12
2017-10-23T00:53:35.331Z,2.50
2017-10-23T00:56:01.661Z,3.83
2017-10-23T00:58:27.976Z,2.80
2017-10-23T01:00:54.327Z,3.97
2017-10-23T01:03:20.645Z,4.15
2017-10-23T01:05:47.402Z,2.97
2017-10-23T01:08:13.738Z,3.20
2017-10-23T01:10:40.050Z,2.60
2017-10-23T01:13:06.419Z,3.80
2017-10-23T01:15:32.716Z,3.65
2017-10-23T01:17:59.053Z,3.12
2017-10-23T01:20:25.405Z,3.60
2017-10-23T01:22:51.734Z,3.72
2017-10-23T01:25:18.075Z,4.45
2017-10-23T01:27:44.388Z,2.35
2017-10-23T01:30:10.724Z,2.45
2017-10-23T01:32:37.053Z,1.80
2017-10-23T01:35:03.396Z,2.55
2017-10-23T01:37:29.774Z,3.05
2017-10-23T01:39:56.147Z,2.87
2017-10-23T01:42:22.467Z,2.85
2017-10-23T01:44:48.811Z,3.00
2017-10-23T01:47:15.198Z,2.25
2017-10-23T01:49:41.458Z,1.52
2017-10-23T01:52:07.798Z,2.10
2017-10-23T01:54:34.143Z,2.45
2017-10-23T01:57:00.532Z,2.30
2017-10-23T01:59:26.800Z,2.20
2017-10-23T02:01:53.136Z,2.67
2017-10-23T02:04:19.458Z,3.25
2017-10-23T02:06:45.814Z,1.95
2017-10-23T02:09:12.135Z,2.78
2017-10-23T02:11:38.462Z,2.67
2017-10-23T02:14:04.811Z,2.90
2017-10-23T02:16:31.123Z,2.78
2017-10-23T02:18:57.455Z,3.12
2017-10-23T02:21:23.808Z,2.62
2017-10-23T02:23:50.122Z,2.90
2017-10-23T02:26:16.451Z,2.55
2017-10-23T02:28:42.793Z,1.87
2017-10-23T02:31:09.120Z,2.33
2017-10-23T02:33:35.469Z,1.98
2017-10-23T02:36:01.793Z,3.30
2017-10-23T02:38:28.114Z,1.00
2017-10-23T02:40:54.451Z,1.95
2017-10-23T02:43:20.768Z,2.78
2017-10-23T02:45:47.125Z,1.98
2017-10-23T02:48:13.458Z,2.65
2017-10-23T02:50:39.695Z,2.40
2017-10-23T02:53:06.015Z,2.37
2017-10-23T02:55:32.350Z,2.87
2017-10-23T02:57:58.735Z,2.78
2017-10-23T03:00:25.154Z,3.40
2017-10-23T03:02:51.457Z,1.98
2017-10-23T03:05:17.771Z,3.15
2017-10-23T03:07:44.103Z,2.35
2017-10-23T03:10:10.365Z,2.05
2017-10-23T03:12:36.663Z,1.85
2017-10-23T03:15:03.009Z,2.15
2017-10-23T03:17:29.325Z,2.30
2017-10-23T03:19:55.670Z,2.33
2017-10-23T03:22:22.063Z,1.87
2017-10-23T03:24:48.419Z,1.80
2017-10-23T03:27:14.751Z,3.35
2017-10-23T03:29:41.098Z,2.40
2017-10-23T03:32:10.476Z,3.05
2017-10-23T03:34:36.888Z,3.10
2017-10-23T03:37:03.271Z,2.00
2017-10-23T03:39:29.593Z,2.33
2017-10-23T03:41:55.939Z,1.55
2017-10-23T03:44:22.273Z,2.92
2017-10-23T03:46:48.600Z,2.28
2017-10-23T03:49:14.922Z,2.10
2017-10-23T03:51:41.263Z,3.95
2017-10-23T03:54:07.595Z,2.62
2017-10-23T03:56:33.985Z,2.30
2017-10-23T03:59:00.259Z,2.85
2017-10-23T04:01:26.596Z,2.85
2017-10-23T04:03:52.952Z,3.42
2017-10-23T04:06:19.262Z,2.28
2017-10-23T04:08:45.575Z,1.83
2017-10-23T04:11:11.910Z,4.15
2017-10-23T04:13:38.255Z,4.68
2017-10-23T04:16:04.692Z,2.25
2017-10-23T04:18:31.073Z,2.25
2017-10-23T04:20:57.333Z,2.87
2017-10-23T04:23:23.678Z,2.75
2017-10-23T04:25:50.020Z,3.70
2017-10-23T04:28:16.340Z,2.15
2017-10-23T04:30:42.692Z,2.30
2017-10-23T04:33:09.035Z,2.25
2017-10-23T04:35:35.349Z,3.58
2017-10-23T04:38:01.666Z,2.50
2017-10-23T04:40:28.006Z,3.40
2017-10-23T04:42:54.324Z,3.67
2017-10-23T04:45:20.671Z,3.65
2017-10-23T04:47:47.013Z,1.83
2017-10-23T04:50:13.337Z,1.50
2017-10-23T04:52:39.682Z,2.17
2017-10-23T04:55:06.014Z,2.53
2017-10-23T04:57:32.383Z,3.15
2017-10-23T04:59:58.673Z,2.08
2017-10-23T05:02:26.791Z,3.80
2017-10-23T05:04:53.176Z,2.95
2017-10-23T05:07:19.491Z,2.37
2017-10-23T05:09:45.850Z,2.47
2017-10-23T05:12:12.200Z,2.85
2017-10-23T05:14:38.544Z,2.62
2017-10-23T05:17:04.860Z,2.20
2017-10-23T05:19:31.165Z,2.58
2017-10-23T05:21:57.502Z,2.72
2017-10-23T05:24:23.883Z,2.60
2017-10-23T05:26:50.188Z,4.35
2017-10-23T05:29:16.497Z,2.40
2017-10-23T05:31:42.861Z,1.70
2017-10-23T05:34:09.260Z,2.12
2017-10-23T05:36:35.592Z,2.25
2017-10-23T05:39:01.923Z,2.90
2017-10-23T05:41:28.314Z,2.55
2017-10-23T05:43:54.579Z,2.85
2017-10-23T05:46:20.980Z,2.72
2017-10-23T05:48:47.381Z,2.08
2017-10-23T05:51:13.680Z,2.62
2017-10-23T05:53:40.055Z,1.95
2017-10-23T05:56:06.346Z,3.53
2017-10-23T05:58:32.683Z,2.37
2017-10-23T06:00:59.040Z,1.83
2017-10-23T06:03:25.307Z,2.92
2017-10-23T06:05:51.573Z,2.28
2017-10-23T06:08:17.811Z,2.60
2017-10-23T06:10:44.144Z,3.70
2017-10-23T06:13:10.479Z,1.77
2017-10-23T06:15:37.706Z,3.08
2017-10-23T06:18:04.058Z,1.65
2017-10-23T06:20:30.385Z,2.17
2017-10-23T06:22:56.709Z,3.20
2017-10-23T06:25:23.066Z,2.70
2017-10-23T06:27:49.412Z,4.95
2017-10-23T06:30:15.724Z,3.28
2017-10-23T06:32:42.071Z,2.40
2017-10-23T06:35:08.386Z,3.37
2017-10-23T06:37:34.710Z,2.95
2017-10-23T06:40:01.037Z,2.90
2017-10-23T06:42:29.127Z,2.28
2017-10-23T06:44:55.473Z,2.83
2017-10-23T06:47:21.774Z,4.80
2017-10-23T06:49:48.101Z,2.85
2017-10-23T06:52:14.448Z,4.62
2017-10-23T06:54:40.771Z,3.05
2017-10-23T06:57:07.996Z,2.12
2017-10-23T06:59:34.344Z,2.55
2017-10-23T07:02:00.704Z,3.17
2017-10-23T07:04:27.070Z,2.70
2017-10-23T07:06:53.422Z,2.40
2017-10-23T07:09:19.693Z,2.60
2017-10-23T07:11:46.055Z,2.70
2017-10-23T07:14:12.288Z,2.72
2017-10-23T07:16:38.728Z,3.92
2017-10-23T07:19:15.281Z,3.22
2017-10-23T07:21:44.780Z,4.00
2017-10-23T07:24:11.225Z,4.70
2017-10-23T07:26:37.523Z,3.92
2017-10-23T07:29:04.003Z,3.37
2017-10-23T07:31:30.313Z,2.55
2017-10-23T07:33:56.716Z,3.12
2017-10-23T07:36:23.142Z,3.20
2017-10-23T07:38:50.406Z,3.40
2017-10-23T07:41:16.739Z,2.75
2017-10-23T07:43:44.124Z,2.90
2017-10-23T07:46:10.373Z,2.72
2017-10-23T07:48:36.773Z,2.50
2017-10-23T07:51:03.065Z,2.58
2017-10-23T07:53:29.510Z,3.45
2017-10-23T07:55:56.271Z,2.85
2017-10-23T07:58:24.743Z,4.20
2017-10-23T08:00:53.133Z,3.25
2017-10-23T08:03:19.497Z,4.40
2017-10-23T08:05:46.059Z,3.00
2017-10-23T08:08:13.438Z,4.40
2017-10-23T08:10:39.868Z,3.90
2017-10-23T08:13:06.272Z,4.45
2017-10-23T08:15:32.569Z,6.47
2017-10-23T08:17:58.961Z,6.65
2017-10-23T08:20:27.322Z,3.42
2017-10-23T08:22:53.626Z,3.50
2017-10-23T08:25:22.744Z,4.65
2017-10-23T08:27:49.019Z,3.70
2017-10-23T08:30:15.436Z,3.65
2017-10-23T08:32:45.981Z,3.92
2017-10-23T08:35:18.483Z,3.47
2017-10-23T08:37:44.923Z,3.80
2017-10-23T08:40:11.256Z,3.55
2017-10-23T08:42:37.619Z,5.45
2017-10-23T08:45:03.932Z,6.28
2017-10-23T08:47:30.257Z,5.07
2017-10-23T08:49:56.595Z,5.82
2017-10-23T08:52:22.946Z,3.92
2017-10-23T08:54:49.239Z,3.30
2017-10-23T08:57:15.581Z,3.30
2017-10-23T08:59:41.914Z,4.07
2017-10-23T09:02:08.251Z,4.55
2017-10-23T09:04:34.632Z,3.40
2017-10-23T09:07:00.896Z,3.83
2017-10-23T09:09:27.232Z,3.65
2017-10-23T09:11:53.625Z,4.28
2017-10-23T09:14:19.998Z,5.32
2017-10-23T09:16:46.332Z,5.70
2017-10-23T09:19:12.657Z,3.65
2017-10-23T09:21:38.998Z,4.50
2017-10-23T09:24:05.338Z,3.78
2017-10-23T09:26:31.735Z,4.62
2017-10-23T09:28:58.010Z,3.42
2017-10-23T09:31:24.349Z,5.40
2017-10-23T09:33:50.677Z,4.87
2017-10-23T09:36:16.994Z,4.47
2017-10-23T09:38:43.493Z,4.22
2017-10-23T09:41:09.774Z,4.10
2017-10-23T09:43:37.474Z,4.97
2017-10-23T09:46:03.860Z,5.18
2017-10-23T09:51:02.082Z,5.00
2017-10-23T09:53:29.463Z,3.08
2017-10-23T09:55:55.794Z,4.20
2017-10-23T09:58:22.057Z,4.78
2017-10-23T10:00:48.417Z,4.25
2017-10-23T10:03:14.748Z,6.62
2017-10-23T10:05:42.227Z,6.22
2017-10-23T10:08:08.594Z,3.90
2017-10-23T10:10:35.042Z,4.65
2017-10-23T10:13:01.290Z,4.03
2017-10-23T10:15:27.717Z,3.90
2017-10-23T10:17:54.057Z,3.67
2017-10-23T10:20:20.429Z,3.58
2017-10-23T10:22:46.733Z,3.97
2017-10-23T10:25:13.071Z,5.35
2017-10-23T10:27:39.384Z,4.00
2017-10-23T10:30:05.728Z,5.20
2017-10-23T10:32:32.000Z,6.20
2017-10-23T10:34:58.242Z,5.18
2017-10-23T10:37:24.509Z,5.80
2017-10-23T10:39:50.776Z,3.65
2017-10-23T10:42:17.091Z,5.05
2017-10-23T10:44:43.466Z,6.07
2017-10-23T10:47:09.728Z,3.83
2017-10-23T10:49:36.171Z,4.37
2017-10-23T10:52:02.503Z,6.03
2017-10-23T10:54:28.859Z,5.22
2017-10-23T10:56:55.157Z,3.87
2017-10-23T10:59:21.495Z,6.80
2017-10-23T11:01:47.891Z,5.35
2017-10-23T11:04:14.279Z,5.80
2017-10-23T11:06:40.624Z,6.72
2017-10-23T11:09:06.905Z,6.50
2017-10-23T11:11:33.284Z,5.10
2017-10-23T11:13:59.599Z,7.37
2017-10-23T11:16:25.922Z,2.75
2017-10-23T11:18:52.264Z,6.12
2017-10-23T11:21:18.608Z,6.70
2017-10-23T11:23:44.982Z,6.12
2017-10-23T11:26:11.281Z,6.60
2017-10-23T11:28:37.601Z,6.32
2017-10-23T11:31:03.935Z,4.93
2017-10-23T11:33:30.309Z,6.22
2017-10-23T11:35:56.875Z,6.00
2017-10-23T11:38:23.224Z,7.53
2017-10-23T11:40:49.564Z,5.32
2017-10-23T11:43:15.914Z,4.68
2017-10-23T11:45:42.216Z,5.37
2017-10-23T11:48:08.594Z,5.65
2017-10-23T11:50:35.171Z,6.65
2017-10-23T11:53:01.522Z,4.97
2017-10-23T11:55:27.901Z,4.90
2017-10-23T11:57:54.208Z,6.93
2017-10-23T12:00:20.571Z,6.18
2017-10-23T12:02:46.862Z,8.13
2017-10-23T12:05:13.182Z,8.27
2017-10-23T12:07:39.416Z,6.40
2017-10-23T12:10:05.774Z,3.72
2017-10-23T12:12:32.114Z,5.12
2017-10-23T12:14:58.430Z,7.75
2017-10-23T12:17:24.764Z,7.30
2017-10-23T12:19:51.134Z,6.53
2017-10-23T12:22:17.453Z,8.20
2017-10-23T12:24:43.848Z,6.05
2017-10-23T12:27:10.171Z,5.30
2017-10-23T12:29:36.538Z,6.15
2017-10-23T12:32:02.853Z,7.20
2017-10-23T12:34:29.092Z,7.72
2017-10-23T12:36:55.406Z,6.53
2017-10-23T12:39:21.759Z,7.07
2017-10-23T12:41:48.098Z,6.90
2017-10-23T12:44:14.417Z,7.80
2017-10-23T12:46:40.758Z,9.23
2017-10-23T12:49:07.211Z,5.90
2017-10-23T12:51:33.613Z,8.13
2017-10-23T12:53:59.936Z,6.00
2017-10-23T12:56:26.288Z,6.28
2017-10-23T12:58:52.615Z,7.65
2017-10-23T13:01:18.941Z,8.32
2017-10-23T13:03:45.233Z,7.97
2017-10-23T13:06:11.603Z,8.05
2017-10-23T13:08:39.056Z,8.52
2017-10-23T13:11:06.563Z,9.05
2017-10-23T13:13:32.965Z,8.32
2017-10-23T13:15:59.224Z,8.48
2017-10-23T13:18:25.521Z,9.82
2017-10-23T13:20:51.830Z,9.10
2017-10-23T13:23:18.076Z,9.32
2017-10-23T13:25:44.340Z,6.68
2017-10-23T13:28:10.617Z,9.18
2017-10-23T13:30:36.893Z,10.25
2017-10-23T13:33:03.172Z,7.90
2017-10-23T13:35:29.501Z,9.48
2017-10-23T13:37:55.800Z,8.20
2017-10-23T13:40:22.069Z,10.13
2017-10-23T13:42:48.397Z,10.05
2017-10-23T13:45:14.741Z,12.70
2017-10-23T13:47:41.932Z,12.35
2017-10-23T13:50:08.252Z,14.15
2017-10-23T13:52:35.714Z,13.77
2017-10-23T13:55:02.063Z,11.52
2017-10-23T13:57:29.161Z,11.07
2017-10-23T13:59:55.618Z,11.15
2017-10-23T14:02:21.965Z,10.75
2017-10-23T14:04:48.334Z,11.35
2017-10-23T14:07:14.962Z,12.60
2017-10-23T14:09:41.300Z,12.05
2017-10-23T14:12:07.605Z,13.20
2017-10-23T14:14:34.021Z,13.93
2017-10-23T14:17:00.349Z,14.48
2017-10-23T14:19:26.608Z,11.20
2017-10-23T14:21:52.915Z,10.43
2017-10-23T14:24:19.256Z,12.13
2017-10-23T14:26:45.615Z,12.05
2017-10-23T14:29:16.862Z,9.77
2017-10-23T14:31:43.175Z,13.00
2017-10-23T14:42:41.956Z,13.60
2017-10-23T14:45:08.486Z,12.63
2017-10-23T14:47:34.861Z,15.27
2017-10-23T14:50:02.137Z,15.75
2017-10-23T14:52:29.539Z,22.50
2017-10-23T14:54:55.895Z,16.05
2017-10-23T14:57:22.224Z,15.38
2017-10-23T14:59:48.558Z,15.63
2017-10-23T15:02:17.630Z,18.48
2017-10-23T15:07:16.524Z,21.33
2017-10-23T15:09:43.012Z,44.10
2017-10-23T15:12:09.439Z,21.55
2017-10-23T15:14:35.794Z,20.08
2017-10-23T15:17:02.783Z,16.00
2017-10-23T15:19:29.264Z,17.62
2017-10-23T15:21:55.590Z,17.35
2017-10-23T15:24:22.015Z,17.55
2017-10-23T15:26:48.318Z,15.60
2017-10-23T15:29:14.718Z,17.20
2017-10-23T15:31:41.146Z,16.55
2017-10-23T15:34:07.737Z,15.93
2017-10-23T15:36:34.104Z,18.52
2017-10-23T15:39:00.405Z,17.90
2017-10-23T15:41:26.746Z,19.80
2017-10-23T15:43:53.122Z,18.20
2017-10-23T15:46:19.425Z,22.20
2017-10-23T15:48:47.193Z,20.88
2017-10-23T15:51:13.488Z,19.87
2017-10-23T15:53:39.821Z,17.83
2017-10-23T15:56:06.161Z,20.05
2017-10-23T15:58:32.507Z,19.45
2017-10-23T16:00:58.854Z,19.58
2017-10-23T16:03:25.151Z,18.17
2017-10-23T16:05:51.487Z,17.45
2017-10-23T16:08:17.804Z,14.30
2017-10-23T16:10:44.261Z,16.00
2017-10-23T16:13:10.582Z,15.77
2017-10-23T16:15:36.919Z,16.90
2017-10-23T16:18:03.239Z,13.73
2017-10-23T16:20:29.580Z,15.40
2017-10-23T16:22:56.033Z,16.62
2017-10-23T16:25:22.362Z,17.27
2017-10-23T16:27:48.671Z,15.82
2017-10-23T16:30:15.013Z,14.35
2017-10-23T16:32:41.400Z,15.18
2017-10-23T16:35:07.776Z,16.15
2017-10-23T16:37:34.603Z,13.93
2017-10-23T16:40:00.886Z,13.27
2017-10-23T16:42:27.187Z,13.85
2017-10-23T16:44:53.507Z,16.00
2017-10-23T16:47:19.844Z,14.57
2017-10-23T16:49:46.179Z,15.65
2017-10-23T16:52:12.580Z,16.58
2017-10-23T16:54:38.946Z,13.62
2017-10-23T16:57:05.281Z,13.88
2017-10-23T16:59:31.627Z,12.50
2017-10-23T17:01:57.931Z,14.27
2017-10-23T17:04:24.261Z,14.48
2017-10-23T17:06:50.609Z,11.82
2017-10-23T17:09:16.939Z,12.30
2017-10-23T17:11:43.287Z,13.88
2017-10-23T17:14:09.898Z,9.32
2017-10-23T17:16:36.335Z,11.23
2017-10-23T17:19:02.690Z,10.65
2017-10-23T17:21:28.997Z,12.25
2017-10-23T17:23:55.442Z,11.38
2017-10-23T17:26:22.801Z,13.55
2017-10-23T17:28:58.955Z,11.85
2017-10-23T17:31:25.457Z,12.50
2017-10-23T17:33:52.130Z,12.23
2017-10-23T17:36:18.547Z,12.35
2017-10-23T17:38:50.658Z,11.45
2017-10-23T17:41:17.098Z,10.73
2017-10-23T17:43:43.413Z,11.82
2017-10-23T17:46:09.841Z,11.07
2017-10-23T17:48:36.294Z,14.60
2017-10-23T17:51:02.666Z,10.73
2017-10-23T17:53:29.239Z,11.50
2017-10-23T17:55:55.641Z,12.20
2017-10-23T17:58:22.062Z,12.57
2017-10-23T18:00:48.443Z,11.45
2017-10-23T18:03:15.625Z,7.07
2017-10-23T18:05:42.981Z,14.10
2017-10-23T18:08:09.402Z,10.40
2017-10-23T18:10:35.731Z,11.40
2017-10-23T18:13:02.105Z,9.95
2017-10-23T18:15:28.396Z,10.57
2017-10-23T18:17:55.686Z,9.48
2017-10-23T18:20:22.011Z,12.10
2017-10-23T18:22:48.661Z,11.10
2017-10-23T18:25:15.011Z,11.32
2017-10-23T18:27:41.398Z,11.98
2017-10-23T18:30:07.713Z,11.57
2017-10-23T18:32:34.061Z,12.20
2017-10-23T18:35:00.407Z,10.45
2017-10-23T18:37:26.784Z,12.52
2017-10-23T18:39:53.277Z,10.85
2017-10-23T18:44:54.577Z,10.25
2017-10-23T18:47:22.612Z,12.50
2017-10-23T18:49:49.205Z,11.20
2017-10-23T19:02:04.025Z,7.78
2017-10-23T19:04:30.551Z,6.70
2017-10-23T19:07:05.900Z,8.95
2017-10-23T19:09:41.239Z,9.85
2017-10-23T19:14:47.993Z,7.43
2017-10-23T19:17:30.890Z,6.90
2017-10-23T19:32:52.273Z,5.60
2017-10-23T19:35:18.639Z,6.03
2017-10-23T19:37:44.990Z,7.78
2017-10-23T19:40:11.337Z,6.70
2017-10-23T19:42:37.675Z,8.93
2017-10-23T19:45:05.034Z,7.00
2017-10-23T19:47:31.325Z,7.18
2017-10-23T19:49:57.675Z,8.20
2017-10-23T19:52:24.056Z,6.90
2017-10-23T19:54:50.481Z,8.32
2017-10-23T19:57:16.834Z,5.00
2017-10-23T19:59:43.118Z,5.72
2017-10-23T20:02:09.566Z,6.05
2017-10-23T20:04:35.904Z,5.60
2017-10-23T20:07:07.183Z,6.82
2017-10-23T20:09:43.241Z,5.30
2017-10-23T20:12:09.658Z,5.50
2017-10-23T20:14:36.027Z,3.35
2017-10-23T20:17:11.351Z,4.30
2017-10-23T20:19:37.741Z,4.10
2017-10-23T20:22:04.081Z,5.20
2017-10-23T20:24:30.546Z,5.20
2017-10-23T20:26:56.880Z,5.82
2017-10-23T20:29:23.385Z,6.15
2017-10-23T20:31:49.814Z,5.75
2017-10-23T20:34:16.643Z,5.60
2017-10-23T20:36:44.585Z,5.07
2017-10-23T20:39:11.217Z,4.78
2017-10-23T20:41:47.471Z,4.10
2017-10-23T20:44:13.945Z,4.30
2017-10-23T20:46:43.787Z,4.00
2017-10-23T20:49:10.197Z,3.53
2017-10-23T20:51:37.138Z,4.65
2017-10-23T20:54:03.654Z,4.03
2017-10-23T20:56:31.014Z,3.92
2017-10-23T20:58:59.799Z,2.45
2017-10-23T21:01:34.624Z,4.35
2017-10-23T21:04:03.275Z,3.70
2017-10-23T21:06:35.093Z,4.07
2017-10-23T21:19:55.068Z,2.50
2017-10-23T21:43:58.036Z,2.80
2017-10-23T22:37:21.601Z,1.65
2017-10-23T22:39:59.383Z,2.12
2017-10-23T22:42:34.245Z,2.40
2017-10-23T22:45:00.958Z,2.70
2017-10-23T22:50:06.333Z,3.62
2017-10-23T22:52:41.903Z,2.47
2017-10-23T22:55:08.420Z,2.30
2017-10-23T22:57:36.951Z,2.92
2017-10-23T23:00:04.340Z,2.90
2017-10-23T23:02:32.629Z,2.80
2017-10-23T23:05:07.008Z,1.98
2017-10-23T23:07:42.520Z,2.47
2017-10-23T23:10:12.937Z,2.85
2017-10-23T23:12:39.337Z,3.15
2017-10-23T23:15:07.612Z,2.15
2017-10-23T23:17:33.963Z,2.08
2017-10-23T23:20:00.359Z,1.90
2017-10-23T23:22:26.688Z,2.50
2017-10-23T23:24:53.156Z,3.03
2017-10-23T23:27:19.517Z,3.40
2017-10-23T23:29:46.076Z,3.10
2017-10-23T23:32:12.440Z,2.12
2017-10-23T23:34:38.764Z,2.45
2017-10-23T23:37:05.227Z,2.53
2017-10-23T23:39:31.546Z,2.55
2017-10-23T23:41:57.890Z,2.35
2017-10-23T23:44:24.311Z,2.20
2017-10-23T23:46:50.651Z,2.75
2017-10-23T23:49:17.068Z,3.25
2017-10-23T23:51:43.435Z,2.50
2017-10-23T23:54:13.174Z,2.42
2017-10-23T23:56:39.533Z,2.67
2017-10-23T23:59:05.878Z,2.45
